Bewolking Meer informatie Parkstad Weather Satellite


Neerslag Meer informatie Parkstad Rain Snow Radar


Onweersbuien Meer informatie Parkstad Lighntning


24/7 Weercamera Meer informatie Parkstad Weathercam


Natuurbrandrisico
CBI






Het weer levert geen direct gevaar op in Parkstad (045)    Er zijn geen waarschuwingen afgegeven voor Parkstad (045)

METAR rapporten vliegvelden

   
EHBK - Beek Nederland
Gewijzigd: 21-06-2018 15:55
Gedeeltelijk bewolkt  
Gedeeltelijk bewolkt  
   Wind: NNW 20.4 km/h
Wind: NNW 20.4 km/h
Temperatuur: 18°C
Dauwpunt: 4°C
Vochtigheid: 40%
Barometer: 1022 hPa
Satelliet beelden: Gedeeltelijk bewolkt
Zicht: meer dan 10 km
Bewolking: Gedeeltelijk bewolkt
EHBK 211355Z AUTO 33011KT 270V360 9999 NSC 18/04 Q1022 NOSIG
EHBK - Maastricht Nederland
Gewijzigd: 21-06-2018 15:55
Gedeeltelijk bewolkt  
Gedeeltelijk bewolkt  
   Wind: NNW 20.4 km/h
Wind: NNW 20.4 km/h
Temperatuur: 18°C
Dauwpunt: 4°C
Vochtigheid: 40%
Barometer: 1022 hPa
Satelliet beelden: Gedeeltelijk bewolkt
Zicht: meer dan 10 km
Bewolking: Gedeeltelijk bewolkt
EHBK 211355Z AUTO 33011KT 270V360 9999 NSC 18/04 Q1022 NOSIG
EBLG - Liège België
Gewijzigd: 21-06-2018 16:20
Gedeeltelijk bewolkt  
Gedeeltelijk bewolkt  
   Wind: WNW 24.1 km/h
Wind: WNW 24.1 km/h
Temperatuur: 16°C
Dauwpunt: 4°C
Vochtigheid: 45%
Barometer: 1023 hPa
Satelliet beelden: Gedeeltelijk bewolkt
Zicht: meer dan 10 km
Bewolking: Gedeeltelijk bewolkt 1463 m
EBLG 211420Z 30013KT 270V340 9999 SCT048 16/04 Q1023 NOSIG
EDDK - Köln/Bonn Duitsland
Gewijzigd: 21-06-2018 16:20
Helder  
Helder  
   Wind: NW 33.3 km/h
Wind: NW 33.3 km/h
Temperatuur: 19°C
Dauwpunt: 4°C
Vochtigheid: 37%
Barometer: 1020 hPa
Zicht: meer dan 10 km
Bewolking: Helder
EDDK 211420Z 31018KT 270V350 CAVOK 19/04 Q1020 NOSIG
EDDL - Düsseldorf Duitsland
Gewijzigd: 21-06-2018 16:20
Helder  
Helder  
   Wind: WNW 25.9 km/h
Wind: WNW 25.9 km/h
Temperatuur: 18°C
Dauwpunt: 5°C
Vochtigheid: 43%
Barometer: 1021 hPa
Zicht: meer dan 10 km
Bewolking: Helder
EDDL 211420Z 30014KT 270V330 CAVOK 18/05 Q1021 NOSIG
EHEH - Eindhoven Nederland
Gewijzigd: 21-06-2018 16:25
Bewolking  
Bewolking  
   Wind: NW 20.4 km/h<br />Gust to 20.4 km/h
Wind: NW 20.4 km/h
Gust to 20.4 km/h
Temperatuur: 16°C
Dauwpunt: 5°C
Vochtigheid: 48%
Barometer: 1023 hPa
Satelliet beelden: Bewolking
Zicht: meer dan 10 km
Bewolking: Licht bewolkt 1250 m,
Gedeeltelijk bewolkt 1402 m,
Bewolking 1555 m
EHEH 211425Z AUTO 31011G21KT 260V030 9999 FEW041/// SCT046/// OVC051/// 16/05 Q1023 BLU 31015G25KT 9999 SCT045
ELLX - Luxemburg Luxemburg
Gewijzigd: 21-06-2018 16:20
Licht bewolkt  
Licht bewolkt  
   Wind: NNW 20.4 km/h
Wind: NNW 20.4 km/h
Temperatuur: 19°C
Dauwpunt: 6°C
Vochtigheid: 43%
Barometer: 1021 hPa
Satelliet beelden: Licht bewolkt
Zicht: meer dan 10 km
Bewolking: Licht bewolkt 1494 m
ELLX 211420Z 34011KT 280V030 9999 FEW049 19/06 Q1021 TEMPO 33015G25KT
EGLL - London England
Gewijzigd: 21-06-2018 16:20
Helder  
Helder  
   Wind: NNW 14.8 km/h
Wind: NNW 14.8 km/h
Temperatuur: 18°C
Dauwpunt: 3°C
Vochtigheid: 37%
Barometer: 1027 hPa
Satelliet beelden: Helder
Zicht: meer dan 10 km
Bewolking: Helder
EGLL 211420Z AUTO 34008KT 300V030 9999 NCD 18/03 Q1027 NOSIG
EBAW - Antwerpen België
Gewijzigd: 21-06-2018 16:20
Gedeeltelijk bewolkt  
Gedeeltelijk bewolkt  
   Wind: NW 25.9 km/h
Wind: NW 25.9 km/h
Temperatuur: 16°C
Dauwpunt: 5°C
Vochtigheid: 48%
Barometer: 1024 hPa
Satelliet beelden: Gedeeltelijk bewolkt
Zicht: meer dan 10 km
Bewolking: Gedeeltelijk bewolkt 1158 m,
Gedeeltelijk bewolkt 1372 m
EBAW 211420Z 32014KT 290V010 9999 SCT038 SCT045 16/05 Q1024 NOSIG
EBOS - Oostende België
Gewijzigd: 21-06-2018 16:20
Licht bewolkt  
Licht bewolkt  
   Wind: Noorden 31.5 km/h
Wind: Noorden 31.5 km/h
Temperatuur: 15°C
Dauwpunt: 6°C
Vochtigheid: 55%
Barometer: 1026 hPa
Satelliet beelden: Licht bewolkt
Zicht: meer dan 10 km
Bewolking: Licht bewolkt 914 m
EBOS 211420Z 35017KT 9999 FEW030 15/06 Q1026 NOSIG
LEAL - La Nucia Spanje
Gewijzigd: 21-06-2018 16:00
Helder  
Helder  
   Wind: Oosten 18.5 km/h
Wind: Oosten 18.5 km/h
Temperatuur: 28°C
Gevoelstemperatuur: 28°C
Dauwpunt: 15°C
Vochtigheid: 45%
Barometer: 1017 hPa
Zicht: meer dan 10 km
Bewolking: Helder
LEAL 211400Z 09010KT CAVOK 28/15 Q1017 NOSIG
TNCA - Oranjestad Aruba
Gewijzigd: 21-06-2018 16:00
Licht bewolkt  
Licht bewolkt  
   Wind: OZO 37 km/h
Wind: OZO 37 km/h
Temperatuur: 30°C
Gevoelstemperatuur: 34°C
Dauwpunt: 23°C
Vochtigheid: 66%
Barometer: 1015 hPa
Satelliet beelden: Licht bewolkt
Zicht: meer dan 10 km
Bewolking: Licht bewolkt 640 m
TNCA 211400Z 11020KT 9999 FEW021 30/23 Q1015 NOSIG
TNCC - Willemstad Curacao
Gewijzigd: 21-06-2018 16:00
Grotendeels bewolkt  
Grotendeels bewolkt  
   Wind: OZO 33.3 km/h
Wind: OZO 33.3 km/h
Temperatuur: 30°C
Gevoelstemperatuur: 33°C
Dauwpunt: 22°C
Vochtigheid: 62%
Barometer: 1016 hPa
Satelliet beelden: Grotendeels bewolkt
Zicht: meer dan 10 km
Bewolking: Grotendeels bewolkt 701 m
TNCC 211400Z AUTO 12018KT 9999 BKN023 30/22 Q1016
MTPP - Port au Prince Haitië
Gewijzigd: 21-06-2018 16:00
Gedeeltelijk bewolkt  
Gedeeltelijk bewolkt  
   Wind: Oosten 27.8 km/h
Wind: Oosten 27.8 km/h
Temperatuur: 31°C
Gevoelstemperatuur: 36°C
Dauwpunt: 23°C
Vochtigheid: 62%
Barometer: 1017 hPa
Satelliet beelden: Gedeeltelijk bewolkt
Zicht: meer dan 10 km
Bewolking: Licht bewolkt 732 m,
Gedeeltelijk bewolkt 5486 m
MTPP 211400Z 10015KT 9999 FEW024 SCT180 31/23 Q1017 A3003
ENVA - Trondheim Noorwegen
Gewijzigd: 21-06-2018 16:20
Gedeeltelijk bewolkt  
Gedeeltelijk bewolkt  
   Wind: Westen 24.1 km/h
Wind: Westen 24.1 km/h
Temperatuur: 14°C
Dauwpunt: 6°C
Vochtigheid: 59%
Barometer: 1008 hPa
Satelliet beelden: Gedeeltelijk bewolkt
Zicht: meer dan 10 km
Bewolking: Licht bewolkt 1128 m,
Gedeeltelijk bewolkt 1402 m
ENVA 211420Z 28013KT 9999 FEW037 SCT046 14/06 Q1008 NOSIG RMK WIND 670FT 30013KT
ENBO - Bodø Noorwegen
Gewijzigd: 21-06-2018 16:20
Wat regen mogelijk, Motregen, Bewolking  
Wat regen mogelijk, Motregen, Bewolking  
   Wind: Westen 24.1 km/h
Wind: Westen 24.1 km/h
Temperatuur: 9°C
Voelt als: 6°C
Dauwpunt: 9°C
Vochtigheid: 100%
Barometer: 1006 hPa
Satelliet beelden: Bewolking
Zicht: meer dan 10 km
Bewolking: Licht bewolkt 122 m,
Gedeeltelijk bewolkt 244 m,
Bewolking 671 m
ENBO 211420Z 27013KT 9999 -RADZ FEW004 SCT008 OVC022 09/09 Q1006 TEMPO 4000 RADZ SCT004 BKN008
ETNG - Geilenkirchen Duitsland
Gewijzigd: 21-06-2018 15:50
Helder  
Helder  
   Wind: WNW 33.3 km/h<br />Gust to 33.3 km/h
Wind: WNW 33.3 km/h
Gust to 33.3 km/h
Temperatuur: 18°C
Dauwpunt: 4°C
Vochtigheid: 40%
Barometer: 1022 hPa
Zicht: meer dan 10 km
Bewolking: Helder
ETNG 211350Z 30018G28KT CAVOK 18/04 Q1022 NOSIG
 

Script ontwikkeld door  Saratoga-weather.org Aangepast voor de template door  Weerstation Leuven

U vindt ons ook hier:

Het Weer Aktueel

UK Metoffice

European Weather Network

WeatherCloud

Weather Underground

Benelux Weer Netwerk

AWEKAS

WeatherlinkIP

Citizen Weather Observer Program (CWOP)

HAMweather, WeatherForYou, PWS Weather

Apparatuur in gebruik:

Hardwareleverancier
Weerhuisje

Weerstation
Vantage Pro2+ +UV

Weercomputer's
alix3d2 & wl330n

Weerprogramma's
Smartbedded

Satelliet NOAA's
WRX137 & KX137

Satelliet Eumetcast
Ayecka SR1 & Triax

Bliksemdetectie
Boltek StormTracker

Webleverancier
VPS Linux V80

Weerhuisje

Vantage Pro2+ +UV

alix3d2 & wl330n

Smartbedded

WRX137 & KX137

Ayecka SR1 & Triax

Boltek StormTracker

VPS Linux V80